sensor_id;sensor_type;location;lat;lon;timestamp;P1;durP1;ratioP1;P2;durP2;ratioP2
53519;SDS011;39397;53.204;5.778;2023-04-06T00:01:39;9.13;;;4.03;;
53519;SDS011;39397;53.204;5.778;2023-04-06T00:04:04;8.43;;;4.03;;
53519;SDS011;39397;53.204;5.778;2023-04-06T00:06:31;8.38;;;4.22;;
53519;SDS011;39397;53.204;5.778;2023-04-06T00:08:57;7.45;;;4.28;;
53519;SDS011;39397;53.204;5.778;2023-04-06T00:11:23;7.97;;;4.20;;
53519;SDS011;39397;53.204;5.778;2023-04-06T00:13:50;7.80;;;4.45;;
53519;SDS011;39397;53.204;5.778;2023-04-06T00:16:15;7.50;;;4.50;;
53519;SDS011;39397;53.204;5.778;2023-04-06T00:18:41;7.03;;;4.40;;
53519;SDS011;39397;53.204;5.778;2023-04-06T00:21:07;7.25;;;4.18;;
53519;SDS011;39397;53.204;5.778;2023-04-06T00:23:33;9.05;;;3.97;;
53519;SDS011;39397;53.204;5.778;2023-04-06T00:25:59;7.20;;;3.97;;
53519;SDS011;39397;53.204;5.778;2023-04-06T00:28:25;6.63;;;4.47;;
53519;SDS011;39397;53.204;5.778;2023-04-06T00:30:54;6.97;;;4.47;;
53519;SDS011;39397;53.204;5.778;2023-04-06T00:33:20;6.60;;;4.43;;
53519;SDS011;39397;53.204;5.778;2023-04-06T00:35:47;7.97;;;4.57;;
53519;SDS011;39397;53.204;5.778;2023-04-06T00:38:13;8.23;;;4.38;;
53519;SDS011;39397;53.204;5.778;2023-04-06T00:40:40;7.60;;;4.35;;
53519;SDS011;39397;53.204;5.778;2023-04-06T00:43:06;7.50;;;4.03;;
53519;SDS011;39397;53.204;5.778;2023-04-06T00:45:34;10.63;;;5.05;;
53519;SDS011;39397;53.204;5.778;2023-04-06T00:48:00;8.75;;;4.40;;
53519;SDS011;39397;53.204;5.778;2023-04-06T00:50:30;8.20;;;4.45;;
53519;SDS011;39397;53.204;5.778;2023-04-06T00:52:55;6.95;;;4.20;;
53519;SDS011;39397;53.204;5.778;2023-04-06T00:55:21;9.15;;;4.20;;
53519;SDS011;39397;53.204;5.778;2023-04-06T00:57:47;8.68;;;4.22;;
53519;SDS011;39397;53.204;5.778;2023-04-06T01:00:15;7.10;;;3.72;;
53519;SDS011;39397;53.204;5.778;2023-04-06T01:02:41;8.50;;;4.25;;
53519;SDS011;39397;53.204;5.778;2023-04-06T01:05:07;10.20;;;4.72;;
53519;SDS011;39397;53.204;5.778;2023-04-06T01:07:33;6.70;;;4.45;;
53519;SDS011;39397;53.204;5.778;2023-04-06T01:09:58;7.28;;;4.68;;
53519;SDS011;39397;53.204;5.778;2023-04-06T01:12:24;8.18;;;4.57;;
53519;SDS011;39397;53.204;5.778;2023-04-06T01:14:50;7.30;;;4.30;;
53519;SDS011;39397;53.204;5.778;2023-04-06T01:17:16;7.70;;;5.10;;
53519;SDS011;39397;53.204;5.778;2023-04-06T01:19:42;7.32;;;4.38;;
53519;SDS011;39397;53.204;5.778;2023-04-06T01:22:14;8.77;;;4.57;;
53519;SDS011;39397;53.204;5.778;2023-04-06T01:24:41;7.47;;;4.32;;
53519;SDS011;39397;53.204;5.778;2023-04-06T01:27:06;8.43;;;4.10;;
53519;SDS011;39397;53.204;5.778;2023-04-06T01:29:32;7.07;;;4.20;;
53519;SDS011;39397;53.204;5.778;2023-04-06T01:31:58;7.70;;;4.53;;
53519;SDS011;39397;53.204;5.778;2023-04-06T01:34:24;6.72;;;4.10;;
53519;SDS011;39397;53.204;5.778;2023-04-06T01:36:49;7.45;;;3.97;;
53519;SDS011;39397;53.204;5.778;2023-04-06T01:39:15;8.23;;;5.00;;
53519;SDS011;39397;53.204;5.778;2023-04-06T01:41:41;6.60;;;4.13;;
53519;SDS011;39397;53.204;5.778;2023-04-06T01:44:06;7.85;;;4.03;;
53519;SDS011;39397;53.204;5.778;2023-04-06T01:46:32;9.13;;;4.55;;
53519;SDS011;39397;53.204;5.778;2023-04-06T01:48:58;8.45;;;4.32;;
53519;SDS011;39397;53.204;5.778;2023-04-06T01:51:24;6.80;;;4.30;;
53519;SDS011;39397;53.204;5.778;2023-04-06T01:53:50;7.65;;;4.13;;
53519;SDS011;39397;53.204;5.778;2023-04-06T01:56:16;7.22;;;4.18;;
53519;SDS011;39397;53.204;5.778;2023-04-06T01:58:42;8.15;;;4.40;;
53519;SDS011;39397;53.204;5.778;2023-04-06T02:01:08;7.68;;;4.13;;
53519;SDS011;39397;53.204;5.778;2023-04-06T02:03:34;7.85;;;4.50;;
53519;SDS011;39397;53.204;5.778;2023-04-06T02:06:00;6.47;;;4.45;;
53519;SDS011;39397;53.204;5.778;2023-04-06T02:08:26;7.30;;;4.57;;
53519;SDS011;39397;53.204;5.778;2023-04-06T02:10:51;7.15;;;4.70;;
53519;SDS011;39397;53.204;5.778;2023-04-06T02:13:17;7.82;;;4.40;;
53519;SDS011;39397;53.204;5.778;2023-04-06T02:15:43;7.93;;;4.45;;
53519;SDS011;39397;53.204;5.778;2023-04-06T02:18:08;7.68;;;4.60;;
53519;SDS011;39397;53.204;5.778;2023-04-06T02:20:35;8.57;;;4.97;;
53519;SDS011;39397;53.204;5.778;2023-04-06T02:23:00;9.60;;;4.40;;
53519;SDS011;39397;53.204;5.778;2023-04-06T02:25:26;7.28;;;4.18;;
53519;SDS011;39397;53.204;5.778;2023-04-06T02:27:53;7.93;;;5.05;;
53519;SDS011;39397;53.204;5.778;2023-04-06T02:30:19;8.52;;;4.70;;
53519;SDS011;39397;53.204;5.778;2023-04-06T02:32:44;6.38;;;4.38;;
53519;SDS011;39397;53.204;5.778;2023-04-06T02:35:10;10.30;;;5.07;;
53519;SDS011;39397;53.204;5.778;2023-04-06T02:37:36;7.88;;;4.75;;
53519;SDS011;39397;53.204;5.778;2023-04-06T02:40:02;6.32;;;4.45;;
53519;SDS011;39397;53.204;5.778;2023-04-06T02:42:28;7.57;;;4.18;;
53519;SDS011;39397;53.204;5.778;2023-04-06T02:44:54;7.10;;;4.40;;
53519;SDS011;39397;53.204;5.778;2023-04-06T02:47:20;11.15;;;4.95;;
53519;SDS011;39397;53.204;5.778;2023-04-06T02:49:45;9.52;;;4.68;;
53519;SDS011;39397;53.204;5.778;2023-04-06T02:52:11;9.52;;;4.63;;
53519;SDS011;39397;53.204;5.778;2023-04-06T02:54:37;6.85;;;4.60;;
53519;SDS011;39397;53.204;5.778;2023-04-06T02:57:02;6.93;;;3.88;;
53519;SDS011;39397;53.204;5.778;2023-04-06T02:59:28;8.82;;;4.78;;
53519;SDS011;39397;53.204;5.778;2023-04-06T03:01:54;7.20;;;4.75;;
53519;SDS011;39397;53.204;5.778;2023-04-06T03:04:20;9.15;;;4.35;;
53519;SDS011;39397;53.204;5.778;2023-04-06T03:06:47;9.40;;;5.20;;
53519;SDS011;39397;53.204;5.778;2023-04-06T03:09:13;8.57;;;4.75;;
53519;SDS011;39397;53.204;5.778;2023-04-06T03:11:39;9.70;;;5.40;;
53519;SDS011;39397;53.204;5.778;2023-04-06T03:14:05;8.18;;;4.82;;
53519;SDS011;39397;53.204;5.778;2023-04-06T03:16:31;8.50;;;5.22;;
53519;SDS011;39397;53.204;5.778;2023-04-06T03:18:58;9.13;;;4.68;;
53519;SDS011;39397;53.204;5.778;2023-04-06T03:21:24;9.43;;;5.10;;
53519;SDS011;39397;53.204;5.778;2023-04-06T03:23:55;7.18;;;4.95;;
53519;SDS011;39397;53.204;5.778;2023-04-06T03:26:21;8.82;;;4.50;;
53519;SDS011;39397;53.204;5.778;2023-04-06T03:28:47;7.50;;;5.00;;
53519;SDS011;39397;53.204;5.778;2023-04-06T03:31:13;8.52;;;5.03;;
53519;SDS011;39397;53.204;5.778;2023-04-06T03:33:38;7.38;;;5.00;;
53519;SDS011;39397;53.204;5.778;2023-04-06T03:36:04;8.57;;;5.05;;
53519;SDS011;39397;53.204;5.778;2023-04-06T03:38:31;7.88;;;4.68;;
53519;SDS011;39397;53.204;5.778;2023-04-06T03:40:57;9.93;;;5.45;;
53519;SDS011;39397;53.204;5.778;2023-04-06T03:43:23;11.20;;;5.43;;
53519;SDS011;39397;53.204;5.778;2023-04-06T03:45:49;7.95;;;5.00;;
53519;SDS011;39397;53.204;5.778;2023-04-06T03:48:15;8.90;;;5.03;;
53519;SDS011;39397;53.204;5.778;2023-04-06T03:50:40;8.10;;;4.80;;
53519;SDS011;39397;53.204;5.778;2023-04-06T03:53:06;11.48;;;6.43;;
53519;SDS011;39397;53.204;5.778;2023-04-06T03:55:32;7.78;;;5.30;;
53519;SDS011;39397;53.204;5.778;2023-04-06T03:57:58;9.90;;;5.50;;
53519;SDS011;39397;53.204;5.778;2023-04-06T04:00:24;7.95;;;5.28;;
53519;SDS011;39397;53.204;5.778;2023-04-06T04:02:50;10.00;;;5.20;;
53519;SDS011;39397;53.204;5.778;2023-04-06T04:05:15;7.78;;;5.30;;
53519;SDS011;39397;53.204;5.778;2023-04-06T04:07:41;8.90;;;4.72;;
53519;SDS011;39397;53.204;5.778;2023-04-06T04:10:07;9.52;;;5.40;;
53519;SDS011;39397;53.204;5.778;2023-04-06T04:12:33;8.70;;;5.43;;
53519;SDS011;39397;53.204;5.778;2023-04-06T04:14:59;8.10;;;5.68;;
53519;SDS011;39397;53.204;5.778;2023-04-06T04:17:25;8.13;;;5.13;;
53519;SDS011;39397;53.204;5.778;2023-04-06T04:19:51;8.60;;;5.57;;
53519;SDS011;39397;53.204;5.778;2023-04-06T04:22:16;10.68;;;5.75;;
53519;SDS011;39397;53.204;5.778;2023-04-06T04:24:42;8.52;;;5.75;;
53519;SDS011;39397;53.204;5.778;2023-04-06T04:27:08;7.88;;;4.97;;
53519;SDS011;39397;53.204;5.778;2023-04-06T04:29:34;8.70;;;5.32;;
53519;SDS011;39397;53.204;5.778;2023-04-06T04:32:00;8.63;;;5.20;;
53519;SDS011;39397;53.204;5.778;2023-04-06T04:34:25;9.52;;;6.00;;
53519;SDS011;39397;53.204;5.778;2023-04-06T04:36:54;9.95;;;5.50;;
53519;SDS011;39397;53.204;5.778;2023-04-06T04:39:20;9.63;;;5.75;;
53519;SDS011;39397;53.204;5.778;2023-04-06T04:41:46;8.90;;;6.20;;
53519;SDS011;39397;53.204;5.778;2023-04-06T04:44:12;8.95;;;5.50;;
53519;SDS011;39397;53.204;5.778;2023-04-06T04:46:37;10.52;;;5.85;;
53519;SDS011;39397;53.204;5.778;2023-04-06T04:49:03;10.32;;;6.18;;
53519;SDS011;39397;53.204;5.778;2023-04-06T04:51:29;11.85;;;5.68;;
53519;SDS011;39397;53.204;5.778;2023-04-06T04:53:56;8.63;;;5.72;;
53519;SDS011;39397;53.204;5.778;2023-04-06T04:56:21;11.27;;;6.28;;
53519;SDS011;39397;53.204;5.778;2023-04-06T04:58:47;10.55;;;6.35;;
53519;SDS011;39397;53.204;5.778;2023-04-06T05:01:13;10.32;;;5.97;;
53519;SDS011;39397;53.204;5.778;2023-04-06T05:03:40;10.38;;;6.30;;
53519;SDS011;39397;53.204;5.778;2023-04-06T05:06:06;10.85;;;6.38;;
53519;SDS011;39397;53.204;5.778;2023-04-06T05:08:32;9.73;;;5.70;;
53519;SDS011;39397;53.204;5.778;2023-04-06T05:11:04;9.95;;;6.38;;
53519;SDS011;39397;53.204;5.778;2023-04-06T05:13:33;11.27;;;6.63;;
53519;SDS011;39397;53.204;5.778;2023-04-06T05:15:59;11.48;;;6.30;;
53519;SDS011;39397;53.204;5.778;2023-04-06T05:18:25;9.68;;;6.28;;
53519;SDS011;39397;53.204;5.778;2023-04-06T05:20:51;10.30;;;6.25;;
53519;SDS011;39397;53.204;5.778;2023-04-06T05:23:17;11.02;;;6.55;;
53519;SDS011;39397;53.204;5.778;2023-04-06T05:25:43;10.73;;;5.97;;
53519;SDS011;39397;53.204;5.778;2023-04-06T05:28:08;15.20;;;7.03;;
53519;SDS011;39397;53.204;5.778;2023-04-06T05:30:34;11.25;;;6.22;;
53519;SDS011;39397;53.204;5.778;2023-04-06T05:33:00;10.63;;;6.15;;
53519;SDS011;39397;53.204;5.778;2023-04-06T05:35:27;11.13;;;6.53;;
53519;SDS011;39397;53.204;5.778;2023-04-06T05:37:52;13.15;;;6.13;;
53519;SDS011;39397;53.204;5.778;2023-04-06T05:40:18;10.75;;;5.85;;
53519;SDS011;39397;53.204;5.778;2023-04-06T05:42:44;9.50;;;6.03;;
53519;SDS011;39397;53.204;5.778;2023-04-06T05:45:10;8.73;;;5.45;;
53519;SDS011;39397;53.204;5.778;2023-04-06T05:47:41;10.30;;;6.70;;
53519;SDS011;39397;53.204;5.778;2023-04-06T05:50:09;9.85;;;6.20;;
53519;SDS011;39397;53.204;5.778;2023-04-06T05:52:35;9.80;;;5.97;;
53519;SDS011;39397;53.204;5.778;2023-04-06T05:55:02;11.70;;;6.40;;
53519;SDS011;39397;53.204;5.778;2023-04-06T05:57:28;9.98;;;6.60;;
53519;SDS011;39397;53.204;5.778;2023-04-06T05:59:54;9.60;;;6.50;;
53519;SDS011;39397;53.204;5.778;2023-04-06T06:02:20;10.38;;;7.13;;
53519;SDS011;39397;53.204;5.778;2023-04-06T06:04:46;11.25;;;7.10;;
53519;SDS011;39397;53.204;5.778;2023-04-06T06:07:12;10.65;;;6.50;;
53519;SDS011;39397;53.204;5.778;2023-04-06T06:09:37;10.63;;;6.22;;
53519;SDS011;39397;53.204;5.778;2023-04-06T06:12:03;12.10;;;6.68;;
53519;SDS011;39397;53.204;5.778;2023-04-06T06:14:29;12.60;;;6.95;;
53519;SDS011;39397;53.204;5.778;2023-04-06T06:16:55;11.90;;;7.20;;
53519;SDS011;39397;53.204;5.778;2023-04-06T06:19:20;13.00;;;6.82;;
53519;SDS011;39397;53.204;5.778;2023-04-06T06:21:46;11.30;;;6.75;;
53519;SDS011;39397;53.204;5.778;2023-04-06T06:24:12;11.13;;;6.72;;
53519;SDS011;39397;53.204;5.778;2023-04-06T06:26:37;14.15;;;6.45;;
53519;SDS011;39397;53.204;5.778;2023-04-06T06:29:04;9.75;;;6.50;;
53519;SDS011;39397;53.204;5.778;2023-04-06T06:31:31;10.93;;;6.80;;
53519;SDS011;39397;53.204;5.778;2023-04-06T06:33:57;13.85;;;6.63;;
53519;SDS011;39397;53.204;5.778;2023-04-06T06:36:22;11.88;;;7.13;;
53519;SDS011;39397;53.204;5.778;2023-04-06T06:38:48;9.90;;;6.32;;
53519;SDS011;39397;53.204;5.778;2023-04-06T06:41:15;11.95;;;6.80;;
53519;SDS011;39397;53.204;5.778;2023-04-06T06:43:41;14.52;;;6.80;;
53519;SDS011;39397;53.204;5.778;2023-04-06T06:46:06;10.90;;;6.90;;
53519;SDS011;39397;53.204;5.778;2023-04-06T06:48:32;11.60;;;6.35;;
53519;SDS011;39397;53.204;5.778;2023-04-06T06:50:58;10.23;;;6.90;;
53519;SDS011;39397;53.204;5.778;2023-04-06T06:53:24;10.35;;;6.50;;
53519;SDS011;39397;53.204;5.778;2023-04-06T06:55:50;10.05;;;6.82;;
53519;SDS011;39397;53.204;5.778;2023-04-06T06:58:18;12.43;;;6.55;;
53519;SDS011;39397;53.204;5.778;2023-04-06T07:00:47;9.32;;;6.35;;
53519;SDS011;39397;53.204;5.778;2023-04-06T07:03:13;11.43;;;7.28;;
53519;SDS011;39397;53.204;5.778;2023-04-06T07:05:44;10.93;;;6.68;;
53519;SDS011;39397;53.204;5.778;2023-04-06T07:08:15;10.82;;;6.75;;
53519;SDS011;39397;53.204;5.778;2023-04-06T07:10:41;11.27;;;7.05;;
53519;SDS011;39397;53.204;5.778;2023-04-06T07:13:07;11.27;;;7.80;;
53519;SDS011;39397;53.204;5.778;2023-04-06T07:15:32;11.52;;;7.07;;
53519;SDS011;39397;53.204;5.778;2023-04-06T07:17:58;10.48;;;7.03;;
53519;SDS011;39397;53.204;5.778;2023-04-06T07:20:24;12.27;;;7.15;;
53519;SDS011;39397;53.204;5.778;2023-04-06T07:22:50;12.18;;;7.28;;
53519;SDS011;39397;53.204;5.778;2023-04-06T07:25:16;12.38;;;6.78;;
53519;SDS011;39397;53.204;5.778;2023-04-06T07:27:42;12.07;;;7.10;;
53519;SDS011;39397;53.204;5.778;2023-04-06T07:30:07;12.30;;;6.43;;
53519;SDS011;39397;53.204;5.778;2023-04-06T07:32:33;10.70;;;6.97;;
53519;SDS011;39397;53.204;5.778;2023-04-06T07:35:00;13.68;;;6.97;;
53519;SDS011;39397;53.204;5.778;2023-04-06T07:37:26;10.40;;;7.38;;
53519;SDS011;39397;53.204;5.778;2023-04-06T07:39:52;11.93;;;7.38;;
53519;SDS011;39397;53.204;5.778;2023-04-06T07:42:18;11.77;;;7.38;;
53519;SDS011;39397;53.204;5.778;2023-04-06T07:44:44;12.52;;;7.38;;
53519;SDS011;39397;53.204;5.778;2023-04-06T07:47:10;9.95;;;6.80;;
53519;SDS011;39397;53.204;5.778;2023-04-06T07:49:35;12.07;;;7.20;;
53519;SDS011;39397;53.204;5.778;2023-04-06T07:52:01;12.80;;;7.50;;
53519;SDS011;39397;53.204;5.778;2023-04-06T07:54:28;13.23;;;7.20;;
53519;SDS011;39397;53.204;5.778;2023-04-06T07:56:53;9.60;;;7.05;;
53519;SDS011;39397;53.204;5.778;2023-04-06T07:59:19;11.45;;;7.22;;
53519;SDS011;39397;53.204;5.778;2023-04-06T08:01:45;9.77;;;7.32;;
53519;SDS011;39397;53.204;5.778;2023-04-06T08:04:11;12.25;;;7.15;;
53519;SDS011;39397;53.204;5.778;2023-04-06T08:06:36;12.73;;;7.78;;
53519;SDS011;39397;53.204;5.778;2023-04-06T08:09:02;12.55;;;7.30;;
53519;SDS011;39397;53.204;5.778;2023-04-06T08:11:28;11.93;;;7.13;;
53519;SDS011;39397;53.204;5.778;2023-04-06T08:13:54;11.23;;;7.35;;
53519;SDS011;39397;53.204;5.778;2023-04-06T08:16:22;12.02;;;7.55;;
53519;SDS011;39397;53.204;5.778;2023-04-06T08:18:48;14.00;;;7.18;;
53519;SDS011;39397;53.204;5.778;2023-04-06T08:21:14;11.93;;;8.05;;
53519;SDS011;39397;53.204;5.778;2023-04-06T08:23:39;10.13;;;7.10;;
53519;SDS011;39397;53.204;5.778;2023-04-06T08:26:05;11.38;;;7.40;;
53519;SDS011;39397;53.204;5.778;2023-04-06T08:28:31;11.40;;;7.45;;
53519;SDS011;39397;53.204;5.778;2023-04-06T08:30:59;11.77;;;7.45;;
53519;SDS011;39397;53.204;5.778;2023-04-06T08:33:29;12.82;;;8.07;;
53519;SDS011;39397;53.204;5.778;2023-04-06T08:35:54;11.20;;;7.90;;
53519;SDS011;39397;53.204;5.778;2023-04-06T08:38:20;11.43;;;8.60;;
53519;SDS011;39397;53.204;5.778;2023-04-06T08:40:46;11.57;;;7.43;;
53519;SDS011;39397;53.204;5.778;2023-04-06T08:43:13;10.60;;;7.88;;
53519;SDS011;39397;53.204;5.778;2023-04-06T08:45:40;12.65;;;8.35;;
53519;SDS011;39397;53.204;5.778;2023-04-06T08:48:07;13.20;;;8.15;;
53519;SDS011;39397;53.204;5.778;2023-04-06T08:50:33;13.75;;;8.82;;
53519;SDS011;39397;53.204;5.778;2023-04-06T08:53:00;12.82;;;8.30;;
53519;SDS011;39397;53.204;5.778;2023-04-06T08:55:26;13.05;;;8.50;;
53519;SDS011;39397;53.204;5.778;2023-04-06T08:57:52;14.57;;;9.10;;
53519;SDS011;39397;53.204;5.778;2023-04-06T09:00:20;12.30;;;8.73;;
53519;SDS011;39397;53.204;5.778;2023-04-06T09:02:46;11.98;;;8.65;;
53519;SDS011;39397;53.204;5.778;2023-04-06T09:05:13;11.45;;;8.65;;
53519;SDS011;39397;53.204;5.778;2023-04-06T09:07:40;13.48;;;8.93;;
53519;SDS011;39397;53.204;5.778;2023-04-06T09:10:06;14.38;;;9.57;;
53519;SDS011;39397;53.204;5.778;2023-04-06T09:12:33;14.35;;;9.63;;
53519;SDS011;39397;53.204;5.778;2023-04-06T09:15:00;13.63;;;9.80;;
53519;SDS011;39397;53.204;5.778;2023-04-06T09:17:27;13.70;;;9.60;;
53519;SDS011;39397;53.204;5.778;2023-04-06T09:19:59;17.63;;;11.25;;
53519;SDS011;39397;53.204;5.778;2023-04-06T09:22:34;13.88;;;10.35;;
53519;SDS011;39397;53.204;5.778;2023-04-06T09:25:02;18.15;;;11.73;;
53519;SDS011;39397;53.204;5.778;2023-04-06T09:27:31;17.17;;;11.82;;
53519;SDS011;39397;53.204;5.778;2023-04-06T09:32:32;16.25;;;11.25;;
53519;SDS011;39397;53.204;5.778;2023-04-06T09:35:07;15.77;;;10.68;;
53519;SDS011;39397;53.204;5.778;2023-04-06T09:37:33;17.42;;;10.85;;
53519;SDS011;39397;53.204;5.778;2023-04-06T09:40:03;15.40;;;10.88;;
53519;SDS011;39397;53.204;5.778;2023-04-06T09:42:31;15.80;;;11.18;;
53519;SDS011;39397;53.204;5.778;2023-04-06T09:44:57;15.23;;;11.48;;
53519;SDS011;39397;53.204;5.778;2023-04-06T09:47:23;19.00;;;12.73;;
53519;SDS011;39397;53.204;5.778;2023-04-06T09:49:50;17.67;;;13.00;;
53519;SDS011;39397;53.204;5.778;2023-04-06T09:52:21;17.50;;;12.02;;
53519;SDS011;39397;53.204;5.778;2023-04-06T09:54:55;15.88;;;11.07;;
53519;SDS011;39397;53.204;5.778;2023-04-06T09:57:29;18.55;;;11.95;;
53519;SDS011;39397;53.204;5.778;2023-04-06T10:00:03;21.52;;;12.73;;
53519;SDS011;39397;53.204;5.778;2023-04-06T10:05:33;18.52;;;12.73;;
53519;SDS011;39397;53.204;5.778;2023-04-06T10:08:09;16.58;;;11.55;;
53519;SDS011;39397;53.204;5.778;2023-04-06T10:10:35;17.33;;;12.32;;
53519;SDS011;39397;53.204;5.778;2023-04-06T10:13:02;20.55;;;13.20;;
53519;SDS011;39397;53.204;5.778;2023-04-06T10:15:29;18.27;;;12.43;;
53519;SDS011;39397;53.204;5.778;2023-04-06T10:17:59;17.88;;;12.23;;
53519;SDS011;39397;53.204;5.778;2023-04-06T10:25:54;19.25;;;12.00;;
53519;SDS011;39397;53.204;5.778;2023-04-06T10:28:22;17.92;;;12.38;;
53519;SDS011;39397;53.204;5.778;2023-04-06T10:30:48;17.20;;;12.27;;
53519;SDS011;39397;53.204;5.778;2023-04-06T10:33:15;17.23;;;12.77;;
53519;SDS011;39397;53.204;5.778;2023-04-06T10:35:45;16.10;;;12.52;;
53519;SDS011;39397;53.204;5.778;2023-04-06T10:38:11;21.35;;;13.90;;
53519;SDS011;39397;53.204;5.778;2023-04-06T10:40:39;18.35;;;13.77;;
53519;SDS011;39397;53.204;5.778;2023-04-06T10:43:21;19.58;;;14.30;;
53519;SDS011;39397;53.204;5.778;2023-04-06T10:45:57;20.80;;;14.15;;
53519;SDS011;39397;53.204;5.778;2023-04-06T10:48:35;21.05;;;14.63;;
53519;SDS011;39397;53.204;5.778;2023-04-06T10:51:09;20.63;;;13.93;;
53519;SDS011;39397;53.204;5.778;2023-04-06T10:53:41;19.55;;;13.88;;
53519;SDS011;39397;53.204;5.778;2023-04-06T10:56:09;18.15;;;13.38;;
53519;SDS011;39397;53.204;5.778;2023-04-06T10:58:46;20.48;;;13.93;;
53519;SDS011;39397;53.204;5.778;2023-04-06T11:01:23;19.25;;;13.98;;
53519;SDS011;39397;53.204;5.778;2023-04-06T11:03:52;18.70;;;14.95;;
53519;SDS011;39397;53.204;5.778;2023-04-06T11:06:19;17.75;;;14.00;;
53519;SDS011;39397;53.204;5.778;2023-04-06T11:08:56;19.58;;;15.05;;
53519;SDS011;39397;53.204;5.778;2023-04-06T11:11:23;19.42;;;13.68;;
53519;SDS011;39397;53.204;5.778;2023-04-06T11:13:58;23.63;;;15.88;;
53519;SDS011;39397;53.204;5.778;2023-04-06T11:16:25;21.83;;;15.38;;
53519;SDS011;39397;53.204;5.778;2023-04-06T11:21:36;21.08;;;14.55;;
53519;SDS011;39397;53.204;5.778;2023-04-06T11:24:11;20.58;;;15.20;;
53519;SDS011;39397;53.204;5.778;2023-04-06T11:26:37;20.75;;;14.40;;
53519;SDS011;39397;53.204;5.778;2023-04-06T11:29:06;21.10;;;15.50;;
53519;SDS011;39397;53.204;5.778;2023-04-06T11:31:42;21.45;;;14.68;;
53519;SDS011;39397;53.204;5.778;2023-04-06T11:34:11;21.35;;;15.15;;
53519;SDS011;39397;53.204;5.778;2023-04-06T11:36:41;22.08;;;15.30;;
53519;SDS011;39397;53.204;5.778;2023-04-06T11:39:07;20.33;;;14.30;;
53519;SDS011;39397;53.204;5.778;2023-04-06T11:41:33;18.90;;;13.70;;
53519;SDS011;39397;53.204;5.778;2023-04-06T11:44:02;21.05;;;14.88;;
53519;SDS011;39397;53.204;5.778;2023-04-06T11:46:28;23.30;;;15.00;;
53519;SDS011;39397;53.204;5.778;2023-04-06T11:48:58;19.08;;;14.32;;
53519;SDS011;39397;53.204;5.778;2023-04-06T11:51:25;19.13;;;13.85;;
53519;SDS011;39397;53.204;5.778;2023-04-06T11:53:52;17.63;;;14.23;;
53519;SDS011;39397;53.204;5.778;2023-04-06T11:56:25;16.90;;;12.77;;
53519;SDS011;39397;53.204;5.778;2023-04-06T11:58:52;20.20;;;13.25;;
53519;SDS011;39397;53.204;5.778;2023-04-06T12:01:21;17.52;;;12.55;;
53519;SDS011;39397;53.204;5.778;2023-04-06T12:03:48;18.58;;;13.27;;
53519;SDS011;39397;53.204;5.778;2023-04-06T12:06:14;19.48;;;14.00;;
53519;SDS011;39397;53.204;5.778;2023-04-06T12:08:40;17.15;;;10.70;;
53519;SDS011;39397;53.204;5.778;2023-04-06T12:11:06;17.38;;;11.65;;
53519;SDS011;39397;53.204;5.778;2023-04-06T12:13:32;16.98;;;12.88;;
53519;SDS011;39397;53.204;5.778;2023-04-06T12:15:58;16.52;;;12.80;;
53519;SDS011;39397;53.204;5.778;2023-04-06T12:18:23;17.17;;;12.18;;
53519;SDS011;39397;53.204;5.778;2023-04-06T12:20:51;15.48;;;12.40;;
53519;SDS011;39397;53.204;5.778;2023-04-06T12:23:17;19.02;;;12.77;;
53519;SDS011;39397;53.204;5.778;2023-04-06T12:25:44;17.95;;;11.77;;
53519;SDS011;39397;53.204;5.778;2023-04-06T12:28:09;15.95;;;12.27;;
53519;SDS011;39397;53.204;5.778;2023-04-06T12:30:35;16.63;;;11.45;;
53519;SDS011;39397;53.204;5.778;2023-04-06T12:33:01;13.48;;;10.13;;
53519;SDS011;39397;53.204;5.778;2023-04-06T12:35:27;13.88;;;8.75;;
53519;SDS011;39397;53.204;5.778;2023-04-06T12:37:52;9.90;;;6.80;;
53519;SDS011;39397;53.204;5.778;2023-04-06T12:40:18;10.27;;;6.75;;
53519;SDS011;39397;53.204;5.778;2023-04-06T12:42:45;13.52;;;9.25;;
53519;SDS011;39397;53.204;5.778;2023-04-06T12:45:11;15.27;;;10.35;;
53519;SDS011;39397;53.204;5.778;2023-04-06T12:47:37;16.58;;;11.32;;
53519;SDS011;39397;53.204;5.778;2023-04-06T12:50:06;14.10;;;10.00;;
53519;SDS011;39397;53.204;5.778;2023-04-06T12:52:32;13.38;;;10.07;;
53519;SDS011;39397;53.204;5.778;2023-04-06T12:55:00;14.57;;;10.05;;
53519;SDS011;39397;53.204;5.778;2023-04-06T12:57:30;13.57;;;9.23;;
53519;SDS011;39397;53.204;5.778;2023-04-06T12:59:56;11.45;;;8.45;;
53519;SDS011;39397;53.204;5.778;2023-04-06T13:02:22;9.82;;;7.07;;
53519;SDS011;39397;53.204;5.778;2023-04-06T13:04:48;9.48;;;7.15;;
53519;SDS011;39397;53.204;5.778;2023-04-06T13:07:15;9.48;;;6.75;;
53519;SDS011;39397;53.204;5.778;2023-04-06T13:09:41;10.52;;;6.85;;
53519;SDS011;39397;53.204;5.778;2023-04-06T13:12:07;11.05;;;7.05;;
53519;SDS011;39397;53.204;5.778;2023-04-06T13:14:32;12.27;;;7.03;;
53519;SDS011;39397;53.204;5.778;2023-04-06T13:16:58;8.52;;;6.28;;
53519;SDS011;39397;53.204;5.778;2023-04-06T13:19:25;9.07;;;5.97;;
53519;SDS011;39397;53.204;5.778;2023-04-06T13:21:51;11.05;;;7.32;;
53519;SDS011;39397;53.204;5.778;2023-04-06T13:24:17;12.73;;;7.70;;
53519;SDS011;39397;53.204;5.778;2023-04-06T13:26:44;10.63;;;7.63;;
53519;SDS011;39397;53.204;5.778;2023-04-06T13:29:10;10.40;;;7.93;;
53519;SDS011;39397;53.204;5.778;2023-04-06T13:31:36;11.82;;;8.60;;
53519;SDS011;39397;53.204;5.778;2023-04-06T13:34:03;13.20;;;9.43;;
53519;SDS011;39397;53.204;5.778;2023-04-06T13:36:28;14.13;;;10.32;;
53519;SDS011;39397;53.204;5.778;2023-04-06T13:38:54;16.60;;;10.30;;
53519;SDS011;39397;53.204;5.778;2023-04-06T13:41:20;14.40;;;10.88;;
53519;SDS011;39397;53.204;5.778;2023-04-06T13:43:48;14.40;;;10.10;;
53519;SDS011;39397;53.204;5.778;2023-04-06T13:46:14;12.50;;;9.88;;
53519;SDS011;39397;53.204;5.778;2023-04-06T13:48:41;12.85;;;9.90;;
53519;SDS011;39397;53.204;5.778;2023-04-06T13:51:11;15.10;;;10.68;;
53519;SDS011;39397;53.204;5.778;2023-04-06T13:53:39;14.40;;;9.65;;
53519;SDS011;39397;53.204;5.778;2023-04-06T13:56:06;15.52;;;11.10;;
53519;SDS011;39397;53.204;5.778;2023-04-06T13:58:32;14.75;;;11.00;;
53519;SDS011;39397;53.204;5.778;2023-04-06T14:01:05;16.13;;;10.25;;
53519;SDS011;39397;53.204;5.778;2023-04-06T14:03:34;12.57;;;10.13;;
53519;SDS011;39397;53.204;5.778;2023-04-06T14:06:00;18.17;;;11.52;;
53519;SDS011;39397;53.204;5.778;2023-04-06T14:08:26;15.35;;;11.05;;
53519;SDS011;39397;53.204;5.778;2023-04-06T14:10:52;16.23;;;10.55;;
53519;SDS011;39397;53.204;5.778;2023-04-06T14:13:19;15.40;;;11.07;;
53519;SDS011;39397;53.204;5.778;2023-04-06T14:15:45;13.60;;;11.23;;
53519;SDS011;39397;53.204;5.778;2023-04-06T14:18:11;15.60;;;11.25;;
53519;SDS011;39397;53.204;5.778;2023-04-06T14:20:37;13.98;;;11.48;;
53519;SDS011;39397;53.204;5.778;2023-04-06T14:23:03;15.43;;;11.48;;
53519;SDS011;39397;53.204;5.778;2023-04-06T14:25:29;16.00;;;12.00;;
53519;SDS011;39397;53.204;5.778;2023-04-06T14:27:59;16.27;;;11.70;;
53519;SDS011;39397;53.204;5.778;2023-04-06T14:30:26;14.60;;;11.43;;
53519;SDS011;39397;53.204;5.778;2023-04-06T14:32:52;17.25;;;11.95;;
53519;SDS011;39397;53.204;5.778;2023-04-06T14:35:21;17.50;;;12.82;;
53519;SDS011;39397;53.204;5.778;2023-04-06T14:37:47;16.10;;;12.45;;
53519;SDS011;39397;53.204;5.778;2023-04-06T14:40:13;16.38;;;13.23;;
53519;SDS011;39397;53.204;5.778;2023-04-06T14:42:40;17.45;;;13.10;;
53519;SDS011;39397;53.204;5.778;2023-04-06T14:45:05;17.40;;;13.15;;
53519;SDS011;39397;53.204;5.778;2023-04-06T14:47:32;15.85;;;13.07;;